Terminal Aerodrome Forecast
Issued by NWS

Current Version | Previous Version | Text Only | Print | Product List | Glossary On
Versions: 1 2 3 4 5 6 7 8 9 10 11 12 13 14
000
FTUS41 KBGM 291736 AAB
TAFITH
TAF AMD
KITH 291736Z 2918/3018 VRB06KT P6SM -SHRA BKN050
      TEMPO 2918/2922 TSRA BKN050CB
     FM300300 VRB03KT P6SM OVC090
     FM301100 19008KT P6SM BKN050
     FM301400 22007KT P6SM BKN050
     FM301700 26010KT P6SM SCT100 BKN250=

USA.gov is the U.S. government's official web portal to all federal, state and local government web resources and services.